sensor_id;sensor_type;location;lat;lon;timestamp;P1;durP1;ratioP1;P2;durP2;ratioP2
51238;SDS011;38154;47.548;18.828;2023-03-01T00:01:08;6.78;;;3.62;;
51238;SDS011;38154;47.548;18.828;2023-03-01T00:03:42;7.07;;;3.30;;
51238;SDS011;38154;47.548;18.828;2023-03-01T00:06:08;10.38;;;4.30;;
51238;SDS011;38154;47.548;18.828;2023-03-01T00:08:35;9.88;;;4.22;;
51238;SDS011;38154;47.548;18.828;2023-03-01T00:13:28;11.80;;;4.78;;
51238;SDS011;38154;47.548;18.828;2023-03-01T00:15:55;13.77;;;4.97;;
51238;SDS011;38154;47.548;18.828;2023-03-01T00:18:20;16.67;;;5.28;;
51238;SDS011;38154;47.548;18.828;2023-03-01T00:23:16;9.00;;;4.20;;
51238;SDS011;38154;47.548;18.828;2023-03-01T00:25:43;10.45;;;4.50;;
51238;SDS011;38154;47.548;18.828;2023-03-01T00:28:09;12.75;;;4.80;;
51238;SDS011;38154;47.548;18.828;2023-03-01T00:30:35;8.20;;;4.30;;
51238;SDS011;38154;47.548;18.828;2023-03-01T00:33:00;8.52;;;4.15;;
51238;SDS011;38154;47.548;18.828;2023-03-01T00:35:26;10.27;;;4.18;;
51238;SDS011;38154;47.548;18.828;2023-03-01T00:37:52;18.65;;;4.95;;
51238;SDS011;38154;47.548;18.828;2023-03-01T00:40:32;8.85;;;4.45;;
51238;SDS011;38154;47.548;18.828;2023-03-01T00:43:00;8.30;;;4.37;;
51238;SDS011;38154;47.548;18.828;2023-03-01T00:45:26;8.73;;;4.12;;
51238;SDS011;38154;47.548;18.828;2023-03-01T00:47:52;8.13;;;4.85;;
51238;SDS011;38154;47.548;18.828;2023-03-01T00:50:19;12.18;;;4.72;;
51238;SDS011;38154;47.548;18.828;2023-03-01T00:55:11;8.05;;;3.30;;
51238;SDS011;38154;47.548;18.828;2023-03-01T00:57:37;11.10;;;5.17;;
51238;SDS011;38154;47.548;18.828;2023-03-01T01:00:04;9.63;;;4.75;;
51238;SDS011;38154;47.548;18.828;2023-03-01T01:02:32;14.85;;;6.47;;
51238;SDS011;38154;47.548;18.828;2023-03-01T01:04:59;13.70;;;6.82;;
51238;SDS011;38154;47.548;18.828;2023-03-01T01:07:25;8.30;;;5.55;;
51238;SDS011;38154;47.548;18.828;2023-03-01T01:09:51;8.48;;;4.93;;
51238;SDS011;38154;47.548;18.828;2023-03-01T01:12:17;10.70;;;4.60;;
51238;SDS011;38154;47.548;18.828;2023-03-01T01:14:43;8.88;;;4.95;;
51238;SDS011;38154;47.548;18.828;2023-03-01T01:17:08;8.43;;;4.30;;
51238;SDS011;38154;47.548;18.828;2023-03-01T01:19:35;10.77;;;6.03;;
51238;SDS011;38154;47.548;18.828;2023-03-01T01:22:01;5.32;;;4.22;;
51238;SDS011;38154;47.548;18.828;2023-03-01T01:24:26;7.70;;;5.18;;
51238;SDS011;38154;47.548;18.828;2023-03-01T01:26:52;9.82;;;5.10;;
51238;SDS011;38154;47.548;18.828;2023-03-01T01:29:18;22.83;;;6.28;;
51238;SDS011;38154;47.548;18.828;2023-03-01T01:31:44;12.60;;;4.65;;
51238;SDS011;38154;47.548;18.828;2023-03-01T01:34:15;9.20;;;4.37;;
51238;SDS011;38154;47.548;18.828;2023-03-01T01:36:43;6.72;;;4.90;;
51238;SDS011;38154;47.548;18.828;2023-03-01T01:39:09;5.50;;;4.15;;
51238;SDS011;38154;47.548;18.828;2023-03-01T01:41:39;7.62;;;3.75;;
51238;SDS011;38154;47.548;18.828;2023-03-01T01:44:12;7.12;;;3.28;;
51238;SDS011;38154;47.548;18.828;2023-03-01T01:49:42;10.18;;;4.40;;
51238;SDS011;38154;47.548;18.828;2023-03-01T01:52:22;6.10;;;3.67;;
51238;SDS011;38154;47.548;18.828;2023-03-01T01:54:55;9.82;;;3.90;;
51238;SDS011;38154;47.548;18.828;2023-03-01T01:57:47;9.40;;;3.95;;
51238;SDS011;38154;47.548;18.828;2023-03-01T02:02:41;5.57;;;3.08;;
51238;SDS011;38154;47.548;18.828;2023-03-01T02:07:41;7.55;;;4.45;;
51238;SDS011;38154;47.548;18.828;2023-03-01T02:10:08;5.57;;;3.28;;
51238;SDS011;38154;47.548;18.828;2023-03-01T02:12:35;8.82;;;3.80;;
51238;SDS011;38154;47.548;18.828;2023-03-01T02:15:02;8.90;;;4.47;;
51238;SDS011;38154;47.548;18.828;2023-03-01T02:17:30;9.13;;;4.68;;
51238;SDS011;38154;47.548;18.828;2023-03-01T02:22:28;7.87;;;3.80;;
51238;SDS011;38154;47.548;18.828;2023-03-01T02:30:31;9.38;;;4.55;;
51238;SDS011;38154;47.548;18.828;2023-03-01T02:32:58;6.47;;;3.58;;
51238;SDS011;38154;47.548;18.828;2023-03-01T02:35:31;7.90;;;4.18;;
51238;SDS011;38154;47.548;18.828;2023-03-01T02:38:00;6.53;;;3.25;;
51238;SDS011;38154;47.548;18.828;2023-03-01T02:40:29;10.18;;;4.53;;
51238;SDS011;38154;47.548;18.828;2023-03-01T02:42:58;7.53;;;4.18;;
51238;SDS011;38154;47.548;18.828;2023-03-01T02:45:25;9.10;;;3.72;;
51238;SDS011;38154;47.548;18.828;2023-03-01T02:47:55;12.23;;;4.18;;
51238;SDS011;38154;47.548;18.828;2023-03-01T02:55:58;6.40;;;3.50;;
51238;SDS011;38154;47.548;18.828;2023-03-01T02:58:24;8.98;;;3.53;;
51238;SDS011;38154;47.548;18.828;2023-03-01T03:00:50;5.62;;;3.03;;
51238;SDS011;38154;47.548;18.828;2023-03-01T03:03:17;6.97;;;3.87;;
51238;SDS011;38154;47.548;18.828;2023-03-01T03:05:44;7.82;;;3.80;;
51238;SDS011;38154;47.548;18.828;2023-03-01T03:08:10;7.80;;;3.85;;
51238;SDS011;38154;47.548;18.828;2023-03-01T03:10:38;7.80;;;3.40;;
51238;SDS011;38154;47.548;18.828;2023-03-01T03:13:08;3.97;;;3.20;;
51238;SDS011;38154;47.548;18.828;2023-03-01T03:15:36;7.90;;;4.15;;
51238;SDS011;38154;47.548;18.828;2023-03-01T03:18:06;6.82;;;3.72;;
51238;SDS011;38154;47.548;18.828;2023-03-01T03:20:33;13.05;;;5.18;;
51238;SDS011;38154;47.548;18.828;2023-03-01T03:22:59;9.30;;;4.12;;
51238;SDS011;38154;47.548;18.828;2023-03-01T03:25:26;7.05;;;3.85;;
51238;SDS011;38154;47.548;18.828;2023-03-01T03:27:53;6.05;;;3.42;;
51238;SDS011;38154;47.548;18.828;2023-03-01T03:30:24;7.72;;;3.53;;
51238;SDS011;38154;47.548;18.828;2023-03-01T03:32:51;8.73;;;4.00;;
51238;SDS011;38154;47.548;18.828;2023-03-01T03:35:25;8.90;;;4.00;;
51238;SDS011;38154;47.548;18.828;2023-03-01T03:37:56;7.32;;;4.57;;
51238;SDS011;38154;47.548;18.828;2023-03-01T03:40:40;6.90;;;3.72;;
51238;SDS011;38154;47.548;18.828;2023-03-01T03:43:21;14.38;;;4.50;;
51238;SDS011;38154;47.548;18.828;2023-03-01T03:45:49;8.52;;;4.00;;
51238;SDS011;38154;47.548;18.828;2023-03-01T03:48:16;10.98;;;4.95;;
51238;SDS011;38154;47.548;18.828;2023-03-01T03:50:46;7.53;;;3.85;;
51238;SDS011;38154;47.548;18.828;2023-03-01T03:53:13;9.50;;;3.72;;
51238;SDS011;38154;47.548;18.828;2023-03-01T03:55:39;6.70;;;3.30;;
51238;SDS011;38154;47.548;18.828;2023-03-01T03:58:07;6.80;;;3.90;;
51238;SDS011;38154;47.548;18.828;2023-03-01T04:00:39;5.82;;;3.50;;
51238;SDS011;38154;47.548;18.828;2023-03-01T04:03:08;15.23;;;7.05;;
51238;SDS011;38154;47.548;18.828;2023-03-01T04:05:35;86.47;;;24.55;;
51238;SDS011;38154;47.548;18.828;2023-03-01T04:10:29;41.13;;;13.82;;
51238;SDS011;38154;47.548;18.828;2023-03-01T04:12:59;12.65;;;5.57;;
51238;SDS011;38154;47.548;18.828;2023-03-01T04:15:25;8.00;;;3.85;;
51238;SDS011;38154;47.548;18.828;2023-03-01T04:20:20;7.22;;;4.50;;
51238;SDS011;38154;47.548;18.828;2023-03-01T04:22:51;6.78;;;4.10;;
51238;SDS011;38154;47.548;18.828;2023-03-01T04:25:18;7.22;;;3.62;;
51238;SDS011;38154;47.548;18.828;2023-03-01T04:27:44;14.30;;;5.10;;
51238;SDS011;38154;47.548;18.828;2023-03-01T04:30:10;6.82;;;4.87;;
51238;SDS011;38154;47.548;18.828;2023-03-01T04:32:36;11.63;;;5.30;;
51238;SDS011;38154;47.548;18.828;2023-03-01T04:35:02;9.93;;;4.82;;
51238;SDS011;38154;47.548;18.828;2023-03-01T04:37:28;6.18;;;4.30;;
51238;SDS011;38154;47.548;18.828;2023-03-01T04:39:55;8.80;;;4.50;;
51238;SDS011;38154;47.548;18.828;2023-03-01T04:42:21;6.18;;;3.92;;
51238;SDS011;38154;47.548;18.828;2023-03-01T04:44:46;12.50;;;5.00;;
51238;SDS011;38154;47.548;18.828;2023-03-01T04:47:12;5.97;;;3.33;;
51238;SDS011;38154;47.548;18.828;2023-03-01T04:49:38;8.75;;;4.80;;
51238;SDS011;38154;47.548;18.828;2023-03-01T04:52:04;6.95;;;3.95;;
51238;SDS011;38154;47.548;18.828;2023-03-01T04:54:31;7.40;;;3.87;;
51238;SDS011;38154;47.548;18.828;2023-03-01T04:59:24;10.60;;;4.10;;
51238;SDS011;38154;47.548;18.828;2023-03-01T05:01:51;11.15;;;5.95;;
51238;SDS011;38154;47.548;18.828;2023-03-01T05:04:18;9.52;;;4.43;;
51238;SDS011;38154;47.548;18.828;2023-03-01T05:06:44;5.68;;;3.65;;
51238;SDS011;38154;47.548;18.828;2023-03-01T05:09:10;8.40;;;3.83;;
51238;SDS011;38154;47.548;18.828;2023-03-01T05:11:37;10.23;;;3.30;;
51238;SDS011;38154;47.548;18.828;2023-03-01T05:14:03;5.87;;;3.45;;
51238;SDS011;38154;47.548;18.828;2023-03-01T05:16:33;9.63;;;4.10;;
51238;SDS011;38154;47.548;18.828;2023-03-01T05:18:59;9.63;;;4.28;;
51238;SDS011;38154;47.548;18.828;2023-03-01T05:21:25;7.60;;;3.62;;
51238;SDS011;38154;47.548;18.828;2023-03-01T05:23:51;7.78;;;4.62;;
51238;SDS011;38154;47.548;18.828;2023-03-01T05:26:18;8.65;;;4.87;;
51238;SDS011;38154;47.548;18.828;2023-03-01T05:28:47;5.57;;;4.20;;
51238;SDS011;38154;47.548;18.828;2023-03-01T05:31:13;5.60;;;3.77;;
51238;SDS011;38154;47.548;18.828;2023-03-01T05:33:40;4.60;;;3.37;;
51238;SDS011;38154;47.548;18.828;2023-03-01T05:36:07;5.28;;;3.20;;
51238;SDS011;38154;47.548;18.828;2023-03-01T05:38:35;8.90;;;4.45;;
51238;SDS011;38154;47.548;18.828;2023-03-01T05:41:01;7.37;;;3.67;;
51238;SDS011;38154;47.548;18.828;2023-03-01T05:43:30;8.90;;;4.53;;
51238;SDS011;38154;47.548;18.828;2023-03-01T05:45:59;11.45;;;4.65;;
51238;SDS011;38154;47.548;18.828;2023-03-01T05:48:25;4.22;;;3.22;;
51238;SDS011;38154;47.548;18.828;2023-03-01T05:50:51;6.22;;;3.33;;
51238;SDS011;38154;47.548;18.828;2023-03-01T05:53:18;8.43;;;3.97;;
51238;SDS011;38154;47.548;18.828;2023-03-01T05:55:46;7.97;;;3.65;;
51238;SDS011;38154;47.548;18.828;2023-03-01T05:58:14;14.65;;;4.53;;
51238;SDS011;38154;47.548;18.828;2023-03-01T06:00:42;9.75;;;4.87;;
51238;SDS011;38154;47.548;18.828;2023-03-01T06:03:10;5.47;;;3.80;;
51238;SDS011;38154;47.548;18.828;2023-03-01T06:05:37;10.50;;;4.43;;
51238;SDS011;38154;47.548;18.828;2023-03-01T06:08:04;9.52;;;4.75;;
51238;SDS011;38154;47.548;18.828;2023-03-01T06:10:31;9.73;;;4.00;;
51238;SDS011;38154;47.548;18.828;2023-03-01T06:12:57;6.85;;;4.55;;
51238;SDS011;38154;47.548;18.828;2023-03-01T06:15:24;9.35;;;4.53;;
51238;SDS011;38154;47.548;18.828;2023-03-01T06:17:50;6.62;;;3.95;;
51238;SDS011;38154;47.548;18.828;2023-03-01T06:20:21;9.27;;;4.40;;
51238;SDS011;38154;47.548;18.828;2023-03-01T06:22:48;10.45;;;4.25;;
51238;SDS011;38154;47.548;18.828;2023-03-01T06:25:15;9.85;;;4.20;;
51238;SDS011;38154;47.548;18.828;2023-03-01T06:27:44;8.15;;;3.72;;
51238;SDS011;38154;47.548;18.828;2023-03-01T06:30:11;11.38;;;5.97;;
51238;SDS011;38154;47.548;18.828;2023-03-01T06:32:39;7.72;;;5.28;;
51238;SDS011;38154;47.548;18.828;2023-03-01T06:35:09;9.82;;;5.05;;
51238;SDS011;38154;47.548;18.828;2023-03-01T06:37:36;10.13;;;4.30;;
51238;SDS011;38154;47.548;18.828;2023-03-01T06:40:06;6.20;;;3.37;;
51238;SDS011;38154;47.548;18.828;2023-03-01T06:42:37;6.37;;;3.67;;
51238;SDS011;38154;47.548;18.828;2023-03-01T06:45:05;6.70;;;3.62;;
51238;SDS011;38154;47.548;18.828;2023-03-01T06:47:32;6.03;;;3.50;;
51238;SDS011;38154;47.548;18.828;2023-03-01T06:49:59;8.63;;;3.22;;
51238;SDS011;38154;47.548;18.828;2023-03-01T06:54:51;9.77;;;4.95;;
51238;SDS011;38154;47.548;18.828;2023-03-01T06:57:17;9.07;;;4.60;;
51238;SDS011;38154;47.548;18.828;2023-03-01T06:59:43;11.40;;;4.80;;
51238;SDS011;38154;47.548;18.828;2023-03-01T07:02:10;10.73;;;4.15;;
51238;SDS011;38154;47.548;18.828;2023-03-01T07:04:37;7.12;;;3.85;;
51238;SDS011;38154;47.548;18.828;2023-03-01T07:07:03;8.35;;;3.87;;
51238;SDS011;38154;47.548;18.828;2023-03-01T07:09:30;7.50;;;4.07;;
51238;SDS011;38154;47.548;18.828;2023-03-01T07:11:55;10.93;;;4.07;;
51238;SDS011;38154;47.548;18.828;2023-03-01T07:14:22;5.05;;;4.22;;
51238;SDS011;38154;47.548;18.828;2023-03-01T07:16:50;7.78;;;4.50;;
51238;SDS011;38154;47.548;18.828;2023-03-01T07:19:15;9.43;;;4.90;;
51238;SDS011;38154;47.548;18.828;2023-03-01T07:21:41;9.50;;;4.07;;
51238;SDS011;38154;47.548;18.828;2023-03-01T07:24:08;11.77;;;5.53;;
51238;SDS011;38154;47.548;18.828;2023-03-01T07:26:34;7.70;;;3.97;;
51238;SDS011;38154;47.548;18.828;2023-03-01T07:29:00;16.92;;;4.50;;
51238;SDS011;38154;47.548;18.828;2023-03-01T07:31:30;13.73;;;4.32;;
51238;SDS011;38154;47.548;18.828;2023-03-01T07:33:56;12.98;;;4.80;;
51238;SDS011;38154;47.548;18.828;2023-03-01T07:36:22;6.80;;;3.33;;
51238;SDS011;38154;47.548;18.828;2023-03-01T07:38:49;9.85;;;3.50;;
51238;SDS011;38154;47.548;18.828;2023-03-01T07:41:15;10.68;;;4.10;;
51238;SDS011;38154;47.548;18.828;2023-03-01T07:43:41;6.65;;;3.62;;
51238;SDS011;38154;47.548;18.828;2023-03-01T07:46:07;9.18;;;4.53;;
51238;SDS011;38154;47.548;18.828;2023-03-01T07:48:33;10.03;;;5.17;;
51238;SDS011;38154;47.548;18.828;2023-03-01T07:51:00;6.20;;;3.40;;
51238;SDS011;38154;47.548;18.828;2023-03-01T07:53:27;10.40;;;5.00;;
51238;SDS011;38154;47.548;18.828;2023-03-01T07:56:07;7.05;;;3.92;;
51238;SDS011;38154;47.548;18.828;2023-03-01T07:58:38;10.93;;;5.25;;
51238;SDS011;38154;47.548;18.828;2023-03-01T08:01:06;5.72;;;3.45;;
51238;SDS011;38154;47.548;18.828;2023-03-01T08:03:34;11.15;;;4.18;;
51238;SDS011;38154;47.548;18.828;2023-03-01T08:08:31;8.00;;;3.03;;
51238;SDS011;38154;47.548;18.828;2023-03-01T08:10:57;9.05;;;3.58;;
51238;SDS011;38154;47.548;18.828;2023-03-01T08:13:24;10.82;;;4.40;;
51238;SDS011;38154;47.548;18.828;2023-03-01T08:15:50;8.40;;;4.10;;
51238;SDS011;38154;47.548;18.828;2023-03-01T08:18:16;7.55;;;3.62;;
51238;SDS011;38154;47.548;18.828;2023-03-01T08:20:43;11.45;;;3.60;;
51238;SDS011;38154;47.548;18.828;2023-03-01T08:23:09;6.13;;;3.80;;
51238;SDS011;38154;47.548;18.828;2023-03-01T08:25:35;6.22;;;3.20;;
51238;SDS011;38154;47.548;18.828;2023-03-01T08:28:01;10.07;;;4.20;;
51238;SDS011;38154;47.548;18.828;2023-03-01T08:30:27;9.50;;;4.27;;
51238;SDS011;38154;47.548;18.828;2023-03-01T08:32:53;6.15;;;3.95;;
51238;SDS011;38154;47.548;18.828;2023-03-01T08:35:19;5.40;;;3.53;;
51238;SDS011;38154;47.548;18.828;2023-03-01T08:37:45;10.93;;;4.45;;
51238;SDS011;38154;47.548;18.828;2023-03-01T08:40:12;7.05;;;3.28;;
51238;SDS011;38154;47.548;18.828;2023-03-01T08:42:42;9.35;;;4.20;;
51238;SDS011;38154;47.548;18.828;2023-03-01T08:45:11;5.20;;;2.95;;
51238;SDS011;38154;47.548;18.828;2023-03-01T08:47:39;8.50;;;3.78;;
51238;SDS011;38154;47.548;18.828;2023-03-01T08:50:05;10.50;;;4.45;;
51238;SDS011;38154;47.548;18.828;2023-03-01T08:52:32;8.60;;;4.03;;
51238;SDS011;38154;47.548;18.828;2023-03-01T08:54:58;8.18;;;3.97;;
51238;SDS011;38154;47.548;18.828;2023-03-01T08:57:26;7.45;;;3.60;;
51238;SDS011;38154;47.548;18.828;2023-03-01T08:59:52;5.03;;;3.63;;
51238;SDS011;38154;47.548;18.828;2023-03-01T09:02:21;6.43;;;3.30;;
51238;SDS011;38154;47.548;18.828;2023-03-01T09:04:47;5.13;;;2.97;;
51238;SDS011;38154;47.548;18.828;2023-03-01T09:07:13;8.13;;;3.83;;
51238;SDS011;38154;47.548;18.828;2023-03-01T09:09:39;9.67;;;4.53;;
51238;SDS011;38154;47.548;18.828;2023-03-01T09:12:05;8.23;;;4.30;;
51238;SDS011;38154;47.548;18.828;2023-03-01T09:14:31;6.43;;;3.20;;
51238;SDS011;38154;47.548;18.828;2023-03-01T09:16:57;7.20;;;3.62;;
51238;SDS011;38154;47.548;18.828;2023-03-01T09:19:23;6.55;;;3.20;;
51238;SDS011;38154;47.548;18.828;2023-03-01T09:21:49;6.43;;;3.47;;
51238;SDS011;38154;47.548;18.828;2023-03-01T09:24:21;8.40;;;3.80;;
51238;SDS011;38154;47.548;18.828;2023-03-01T09:26:48;7.15;;;4.43;;
51238;SDS011;38154;47.548;18.828;2023-03-01T09:31:41;4.07;;;3.03;;
51238;SDS011;38154;47.548;18.828;2023-03-01T09:34:07;7.60;;;3.75;;
51238;SDS011;38154;47.548;18.828;2023-03-01T09:36:34;6.35;;;4.00;;
51238;SDS011;38154;47.548;18.828;2023-03-01T09:39:00;9.07;;;4.10;;
51238;SDS011;38154;47.548;18.828;2023-03-01T09:44:42;5.55;;;3.37;;
51238;SDS011;38154;47.548;18.828;2023-03-01T09:47:33;8.50;;;3.45;;
51238;SDS011;38154;47.548;18.828;2023-03-01T09:50:14;7.80;;;3.83;;
51238;SDS011;38154;47.548;18.828;2023-03-01T09:53:00;7.72;;;4.18;;
51238;SDS011;38154;47.548;18.828;2023-03-01T09:55:29;10.77;;;4.50;;
51238;SDS011;38154;47.548;18.828;2023-03-01T10:00:48;8.88;;;4.18;;
51238;SDS011;38154;47.548;18.828;2023-03-01T10:03:22;9.00;;;3.75;;
51238;SDS011;38154;47.548;18.828;2023-03-01T10:11:24;5.65;;;3.60;;
51238;SDS011;38154;47.548;18.828;2023-03-01T10:14:01;12.35;;;4.75;;
51238;SDS011;38154;47.548;18.828;2023-03-01T10:19:13;8.90;;;4.30;;
51238;SDS011;38154;47.548;18.828;2023-03-01T10:21:43;6.25;;;3.47;;
51238;SDS011;38154;47.548;18.828;2023-03-01T10:24:12;5.80;;;3.78;;
51238;SDS011;38154;47.548;18.828;2023-03-01T10:26:56;5.75;;;3.35;;
51238;SDS011;38154;47.548;18.828;2023-03-01T10:29:31;6.63;;;4.37;;
51238;SDS011;38154;47.548;18.828;2023-03-01T10:32:03;7.72;;;4.32;;
51238;SDS011;38154;47.548;18.828;2023-03-01T10:34:33;11.73;;;4.18;;
51238;SDS011;38154;47.548;18.828;2023-03-01T10:37:07;5.60;;;3.12;;
51238;SDS011;38154;47.548;18.828;2023-03-01T10:39:56;6.65;;;3.60;;
51238;SDS011;38154;47.548;18.828;2023-03-01T10:42:28;7.55;;;3.03;;
51238;SDS011;38154;47.548;18.828;2023-03-01T10:44:57;6.60;;;3.25;;
51238;SDS011;38154;47.548;18.828;2023-03-01T10:49:51;7.50;;;2.57;;
51238;SDS011;38154;47.548;18.828;2023-03-01T10:52:35;6.87;;;3.60;;
51238;SDS011;38154;47.548;18.828;2023-03-01T10:57:41;5.37;;;3.35;;
51238;SDS011;38154;47.548;18.828;2023-03-01T11:00:15;8.15;;;3.53;;
51238;SDS011;38154;47.548;18.828;2023-03-01T11:02:48;7.20;;;2.97;;
51238;SDS011;38154;47.548;18.828;2023-03-01T11:05:19;5.20;;;2.92;;
51238;SDS011;38154;47.548;18.828;2023-03-01T11:10:28;5.78;;;2.95;;
51238;SDS011;38154;47.548;18.828;2023-03-01T11:13:18;5.62;;;3.00;;
51238;SDS011;38154;47.548;18.828;2023-03-01T11:16:00;6.50;;;3.00;;
51238;SDS011;38154;47.548;18.828;2023-03-01T11:18:28;6.15;;;2.95;;
51238;SDS011;38154;47.548;18.828;2023-03-01T11:20:56;7.65;;;2.42;;
51238;SDS011;38154;47.548;18.828;2023-03-01T11:23:24;5.18;;;2.70;;
51238;SDS011;38154;47.548;18.828;2023-03-01T11:25:57;4.25;;;2.53;;
51238;SDS011;38154;47.548;18.828;2023-03-01T11:28:27;7.22;;;3.00;;
51238;SDS011;38154;47.548;18.828;2023-03-01T11:39:02;8.65;;;3.17;;
51238;SDS011;38154;47.548;18.828;2023-03-01T11:41:38;5.60;;;2.70;;
51238;SDS011;38154;47.548;18.828;2023-03-01T11:44:16;6.15;;;2.85;;
51238;SDS011;38154;47.548;18.828;2023-03-01T11:46:51;5.30;;;3.05;;
51238;SDS011;38154;47.548;18.828;2023-03-01T12:14:21;4.93;;;2.67;;
51238;SDS011;38154;47.548;18.828;2023-03-01T12:20:06;5.55;;;2.25;;
51238;SDS011;38154;47.548;18.828;2023-03-01T12:25:30;5.30;;;2.90;;
51238;SDS011;38154;47.548;18.828;2023-03-01T12:28:03;7.60;;;2.87;;
51238;SDS011;38154;47.548;18.828;2023-03-01T12:34:07;4.97;;;2.65;;
51238;SDS011;38154;47.548;18.828;2023-03-01T12:41:59;2.83;;;2.17;;
51238;SDS011;38154;47.548;18.828;2023-03-01T12:50:05;6.68;;;3.60;;
51238;SDS011;38154;47.548;18.828;2023-03-01T12:53:01;9.10;;;2.95;;
51238;SDS011;38154;47.548;18.828;2023-03-01T12:55:36;9.60;;;2.70;;
51238;SDS011;38154;47.548;18.828;2023-03-01T13:03:32;3.33;;;1.95;;
51238;SDS011;38154;47.548;18.828;2023-03-01T13:06:32;4.10;;;2.25;;
51238;SDS011;38154;47.548;18.828;2023-03-01T13:09:19;4.12;;;2.20;;
51238;SDS011;38154;47.548;18.828;2023-03-01T13:11:48;7.22;;;2.15;;
51238;SDS011;38154;47.548;18.828;2023-03-01T13:16:46;2.83;;;2.10;;
51238;SDS011;38154;47.548;18.828;2023-03-01T13:19:15;10.30;;;2.35;;
51238;SDS011;38154;47.548;18.828;2023-03-01T13:21:47;6.28;;;2.50;;
51238;SDS011;38154;47.548;18.828;2023-03-01T13:24:28;4.07;;;2.15;;
51238;SDS011;38154;47.548;18.828;2023-03-01T13:29:51;4.22;;;2.92;;
51238;SDS011;38154;47.548;18.828;2023-03-01T13:32:25;5.45;;;2.58;;
51238;SDS011;38154;47.548;18.828;2023-03-01T13:35:03;3.10;;;2.12;;
51238;SDS011;38154;47.548;18.828;2023-03-01T13:37:36;5.35;;;2.80;;
51238;SDS011;38154;47.548;18.828;2023-03-01T13:42:53;4.85;;;2.53;;
51238;SDS011;38154;47.548;18.828;2023-03-01T13:48:09;4.65;;;2.12;;
51238;SDS011;38154;47.548;18.828;2023-03-01T13:51:00;4.40;;;2.47;;
51238;SDS011;38154;47.548;18.828;2023-03-01T13:53:36;3.78;;;2.20;;
51238;SDS011;38154;47.548;18.828;2023-03-01T13:56:10;5.37;;;2.47;;
51238;SDS011;38154;47.548;18.828;2023-03-01T13:58:53;3.60;;;2.20;;
51238;SDS011;38154;47.548;18.828;2023-03-01T14:01:24;6.43;;;3.22;;
51238;SDS011;38154;47.548;18.828;2023-03-01T14:06:29;6.25;;;2.50;;
51238;SDS011;38154;47.548;18.828;2023-03-01T14:09:04;5.25;;;2.35;;
51238;SDS011;38154;47.548;18.828;2023-03-01T14:14:32;4.93;;;2.47;;
51238;SDS011;38154;47.548;18.828;2023-03-01T14:19:54;5.65;;;2.08;;
51238;SDS011;38154;47.548;18.828;2023-03-01T14:22:23;7.00;;;3.00;;
51238;SDS011;38154;47.548;18.828;2023-03-01T14:24:56;2.75;;;1.77;;
51238;SDS011;38154;47.548;18.828;2023-03-01T14:27:35;3.53;;;1.98;;
51238;SDS011;38154;47.548;18.828;2023-03-01T14:30:11;6.95;;;2.40;;
51238;SDS011;38154;47.548;18.828;2023-03-01T14:32:48;6.62;;;3.12;;
51238;SDS011;38154;47.548;18.828;2023-03-01T14:35:19;5.28;;;1.92;;
51238;SDS011;38154;47.548;18.828;2023-03-01T14:37:47;2.67;;;2.03;;
51238;SDS011;38154;47.548;18.828;2023-03-01T14:40:25;4.62;;;2.22;;
51238;SDS011;38154;47.548;18.828;2023-03-01T14:42:58;6.85;;;1.80;;
51238;SDS011;38154;47.548;18.828;2023-03-01T14:45:27;2.75;;;1.87;;
51238;SDS011;38154;47.548;18.828;2023-03-01T14:47:58;6.50;;;2.28;;
51238;SDS011;38154;47.548;18.828;2023-03-01T14:50:31;5.85;;;2.22;;
51238;SDS011;38154;47.548;18.828;2023-03-01T14:53:01;3.95;;;2.58;;
51238;SDS011;38154;47.548;18.828;2023-03-01T14:55:31;5.30;;;1.60;;
51238;SDS011;38154;47.548;18.828;2023-03-01T14:58:02;7.45;;;2.08;;
51238;SDS011;38154;47.548;18.828;2023-03-01T15:00:31;3.62;;;2.30;;
51238;SDS011;38154;47.548;18.828;2023-03-01T15:03:11;2.35;;;2.08;;
51238;SDS011;38154;47.548;18.828;2023-03-01T15:05:41;5.15;;;1.83;;
51238;SDS011;38154;47.548;18.828;2023-03-01T15:08:11;4.32;;;2.05;;
51238;SDS011;38154;47.548;18.828;2023-03-01T15:13:39;5.57;;;2.90;;
51238;SDS011;38154;47.548;18.828;2023-03-01T15:18:34;4.00;;;2.53;;
51238;SDS011;38154;47.548;18.828;2023-03-01T15:21:06;4.32;;;2.25;;
51238;SDS011;38154;47.548;18.828;2023-03-01T15:23:34;5.40;;;2.08;;
51238;SDS011;38154;47.548;18.828;2023-03-01T15:26:03;4.05;;;2.70;;
51238;SDS011;38154;47.548;18.828;2023-03-01T15:28:31;3.20;;;2.10;;
51238;SDS011;38154;47.548;18.828;2023-03-01T15:31:06;5.55;;;2.80;;
51238;SDS011;38154;47.548;18.828;2023-03-01T15:33:43;3.47;;;2.25;;
51238;SDS011;38154;47.548;18.828;2023-03-01T15:39:02;2.78;;;2.30;;
51238;SDS011;38154;47.548;18.828;2023-03-01T15:41:32;4.97;;;2.00;;
51238;SDS011;38154;47.548;18.828;2023-03-01T15:44:14;3.65;;;2.00;;
51238;SDS011;38154;47.548;18.828;2023-03-01T15:46:45;3.45;;;1.90;;
51238;SDS011;38154;47.548;18.828;2023-03-01T15:49:32;5.50;;;2.25;;
51238;SDS011;38154;47.548;18.828;2023-03-01T15:52:02;11.98;;;2.62;;
51238;SDS011;38154;47.548;18.828;2023-03-01T15:54:28;3.87;;;2.08;;
51238;SDS011;38154;47.548;18.828;2023-03-01T15:56:55;6.80;;;2.30;;
51238;SDS011;38154;47.548;18.828;2023-03-01T15:59:21;3.03;;;1.90;;
51238;SDS011;38154;47.548;18.828;2023-03-01T16:01:47;3.10;;;2.08;;
51238;SDS011;38154;47.548;18.828;2023-03-01T16:04:15;2.15;;;1.48;;
51238;SDS011;38154;47.548;18.828;2023-03-01T16:06:46;4.15;;;2.12;;
51238;SDS011;38154;47.548;18.828;2023-03-01T16:09:23;3.75;;;2.03;;
51238;SDS011;38154;47.548;18.828;2023-03-01T16:11:51;5.32;;;2.33;;
51238;SDS011;38154;47.548;18.828;2023-03-01T16:14:17;5.62;;;2.55;;
51238;SDS011;38154;47.548;18.828;2023-03-01T16:16:44;5.45;;;2.50;;
51238;SDS011;38154;47.548;18.828;2023-03-01T16:19:11;6.15;;;2.90;;
51238;SDS011;38154;47.548;18.828;2023-03-01T16:21:37;4.62;;;2.85;;
51238;SDS011;38154;47.548;18.828;2023-03-01T16:24:03;6.63;;;3.07;;
51238;SDS011;38154;47.548;18.828;2023-03-01T16:26:30;7.72;;;2.85;;
51238;SDS011;38154;47.548;18.828;2023-03-01T16:28:56;7.83;;;3.37;;
51238;SDS011;38154;47.548;18.828;2023-03-01T16:31:23;6.97;;;3.50;;
51238;SDS011;38154;47.548;18.828;2023-03-01T16:33:52;6.07;;;3.62;;
51238;SDS011;38154;47.548;18.828;2023-03-01T16:36:20;10.10;;;3.90;;
51238;SDS011;38154;47.548;18.828;2023-03-01T16:38:49;5.45;;;3.37;;
51238;SDS011;38154;47.548;18.828;2023-03-01T16:41:17;5.68;;;3.12;;
51238;SDS011;38154;47.548;18.828;2023-03-01T16:43:44;6.65;;;3.70;;
51238;SDS011;38154;47.548;18.828;2023-03-01T16:46:13;5.40;;;3.20;;
51238;SDS011;38154;47.548;18.828;2023-03-01T16:48:40;5.30;;;3.05;;
51238;SDS011;38154;47.548;18.828;2023-03-01T16:51:06;5.78;;;3.87;;
51238;SDS011;38154;47.548;18.828;2023-03-01T16:53:33;8.23;;;4.25;;
51238;SDS011;38154;47.548;18.828;2023-03-01T16:56:02;8.10;;;5.07;;
51238;SDS011;38154;47.548;18.828;2023-03-01T16:58:30;6.62;;;4.65;;
51238;SDS011;38154;47.548;18.828;2023-03-01T17:00:56;8.65;;;4.45;;
51238;SDS011;38154;47.548;18.828;2023-03-01T17:03:23;8.03;;;3.77;;
51238;SDS011;38154;47.548;18.828;2023-03-01T17:05:51;6.03;;;3.92;;
51238;SDS011;38154;47.548;18.828;2023-03-01T17:08:17;4.90;;;3.27;;
51238;SDS011;38154;47.548;18.828;2023-03-01T17:10:43;4.90;;;3.90;;
51238;SDS011;38154;47.548;18.828;2023-03-01T17:13:09;4.68;;;3.15;;
51238;SDS011;38154;47.548;18.828;2023-03-01T17:15:40;5.47;;;3.17;;
51238;SDS011;38154;47.548;18.828;2023-03-01T17:18:07;14.70;;;3.90;;